createdAt,value
2023-02-02T00:01:35.852Z,100524.92
2023-02-02T00:04:05.034Z,100522.44
2023-02-02T00:06:34.352Z,100523.48
2023-02-02T00:09:03.811Z,100522.77
2023-02-02T00:11:32.647Z,100520.41
2023-02-02T00:14:01.492Z,100514.74
2023-02-02T00:16:30.229Z,100513.17
2023-02-02T00:19:05.899Z,100504.98
2023-02-02T00:21:34.914Z,100500.80
2023-02-02T00:24:03.999Z,100497.95
2023-02-02T00:26:32.994Z,100489.70
2023-02-02T00:29:02.190Z,100482.52
2023-02-02T00:31:31.371Z,100477.74
2023-02-02T00:34:00.770Z,100475.52
2023-02-02T00:36:30.475Z,100476.49
2023-02-02T00:38:59.186Z,100473.02
2023-02-02T00:41:27.987Z,100468.78
2023-02-02T00:44:15.349Z,100462.73
2023-02-02T00:46:44.201Z,100452.25
2023-02-02T00:49:13.092Z,100447.92
2023-02-02T00:51:41.866Z,100444.27
2023-02-02T00:54:10.751Z,100440.47
2023-02-02T00:56:39.582Z,100435.61
2023-02-02T00:59:08.705Z,100430.13
2023-02-02T01:01:37.435Z,100436.96
2023-02-02T01:04:06.554Z,100433.79
2023-02-02T01:06:35.497Z,100429.95
2023-02-02T01:09:04.777Z,100430.25
2023-02-02T01:11:33.681Z,100427.39
2023-02-02T01:14:02.559Z,100430.36
2023-02-02T01:16:31.518Z,100421.61
2023-02-02T01:19:00.254Z,100417.25
2023-02-02T01:21:29.899Z,100416.54
2023-02-02T01:23:59.532Z,100414.16
2023-02-02T01:26:28.920Z,100418.23
2023-02-02T01:28:57.870Z,100415.30
2023-02-02T01:31:26.670Z,100417.10
2023-02-02T01:33:55.526Z,100417.08
2023-02-02T01:36:24.787Z,100411.93
2023-02-02T01:38:53.502Z,100415.85
2023-02-02T01:41:26.011Z,100413.41
2023-02-02T01:44:06.580Z,100408.74
2023-02-02T01:46:37.431Z,100405.98
2023-02-02T01:49:19.661Z,100404.60
2023-02-02T01:51:56.655Z,100406.54
2023-02-02T01:54:49.546Z,100401.52
2023-02-02T01:57:38.995Z,100401.69
2023-02-02T02:00:15.566Z,100404.40
2023-02-02T02:02:49.414Z,100411.84
2023-02-02T02:05:28.795Z,100411.26
2023-02-02T02:08:09.233Z,100413.70
2023-02-02T02:10:38.169Z,100410.45
2023-02-02T02:13:07.433Z,100412.33
2023-02-02T02:16:11.990Z,100413.38
2023-02-02T02:19:10.636Z,100410.45
2023-02-02T02:22:31.620Z,100407.91
2023-02-02T02:26:02.801Z,100409.77
2023-02-02T02:29:15.213Z,100409.78
2023-02-02T02:32:23.789Z,100407.92
2023-02-02T02:35:04.695Z,100410.27
2023-02-02T02:37:59.672Z,100413.85
2023-02-02T02:41:00.413Z,100416.72
2023-02-02T02:43:40.609Z,100416.95
2023-02-02T02:46:12.499Z,100414.79
2023-02-02T02:48:45.600Z,100414.64
2023-02-02T02:51:55.008Z,100414.31
2023-02-02T02:54:38.106Z,100420.67
2023-02-02T02:57:22.859Z,100420.45
2023-02-02T03:00:15.427Z,100421.66
2023-02-02T03:03:42.197Z,100417.59
2023-02-02T03:06:36.426Z,100421.95
2023-02-02T03:09:23.645Z,100416.92
2023-02-02T03:11:52.398Z,100424.06
2023-02-02T03:14:21.339Z,100416.98
2023-02-02T03:16:52.947Z,100416.80
2023-02-02T03:19:22.002Z,100416.84
2023-02-02T03:21:50.693Z,100417.48
2023-02-02T03:24:19.550Z,100415.00
2023-02-02T03:26:48.409Z,100408.75
2023-02-02T03:29:17.671Z,100407.64
2023-02-02T03:31:47.253Z,100411.45
2023-02-02T03:34:16.081Z,100407.50
2023-02-02T03:36:44.894Z,100407.05
2023-02-02T03:39:13.699Z,100406.95
2023-02-02T03:41:42.509Z,100404.08
2023-02-02T03:44:11.264Z,100402.67
2023-02-02T03:46:39.951Z,100404.14
2023-02-02T03:49:08.712Z,100402.92
2023-02-02T03:51:37.359Z,100404.29
2023-02-02T03:54:06.250Z,100403.02
2023-02-02T03:56:34.975Z,100405.27
2023-02-02T03:59:03.893Z,100403.86
2023-02-02T04:01:33.236Z,100403.21
2023-02-02T04:04:02.022Z,100405.13
2023-02-02T04:06:30.802Z,100405.68
2023-02-02T04:08:59.536Z,100405.51
2023-02-02T04:11:28.371Z,100397.93
2023-02-02T04:13:57.177Z,100392.41
2023-02-02T04:16:26.162Z,100390.15
2023-02-02T04:18:55.004Z,100388.61
2023-02-02T04:21:23.797Z,100392.05
2023-02-02T04:23:52.643Z,100398.34
2023-02-02T04:26:21.385Z,100401.89
2023-02-02T04:28:50.041Z,100409.71
2023-02-02T04:31:18.785Z,100419.70
2023-02-02T04:33:47.765Z,100426.54
2023-02-02T04:36:16.569Z,100413.89
2023-02-02T04:38:50.089Z,100416.81
2023-02-02T04:41:19.804Z,100422.13
2023-02-02T04:43:49.132Z,100425.84
2023-02-02T04:46:18.161Z,100417.46
2023-02-02T04:48:49.779Z,100414.31
2023-02-02T04:51:18.969Z,100412.11
2023-02-02T04:53:47.774Z,100416.65
2023-02-02T04:56:19.075Z,100419.20
2023-02-02T04:58:47.822Z,100421.24
2023-02-02T05:01:21.123Z,100421.95
2023-02-02T05:03:51.202Z,100423.92
2023-02-02T05:06:20.124Z,100420.89
2023-02-02T05:08:49.358Z,100419.06
2023-02-02T05:11:21.993Z,100420.42
2023-02-02T05:13:54.343Z,100415.77
2023-02-02T05:16:24.711Z,100413.20
2023-02-02T05:18:57.253Z,100415.77
2023-02-02T05:21:26.065Z,100415.32
2023-02-02T05:23:55.035Z,100418.02
2023-02-02T05:26:27.031Z,100416.33
2023-02-02T05:28:57.406Z,100419.65
2023-02-02T05:31:26.353Z,100424.58
2023-02-02T05:33:55.165Z,100426.48
2023-02-02T05:36:23.889Z,100427.55
2023-02-02T05:38:52.697Z,100425.72
2023-02-02T05:41:21.404Z,100425.96
2023-02-02T05:43:50.148Z,100424.45
2023-02-02T05:46:19.133Z,100421.36
2023-02-02T05:48:47.907Z,100416.88
2023-02-02T05:51:31.603Z,100414.19
2023-02-02T05:54:01.129Z,100415.73
2023-02-02T05:56:29.995Z,100422.36
2023-02-02T05:59:00.253Z,100423.50
2023-02-02T06:01:29.046Z,100422.94
2023-02-02T06:03:57.895Z,100423.49
2023-02-02T06:06:27.064Z,100425.66
2023-02-02T06:08:55.728Z,100431.32
2023-02-02T06:11:24.509Z,100434.72
2023-02-02T06:13:53.262Z,100430.34
2023-02-02T06:16:22.086Z,100436.09
2023-02-02T06:18:51.349Z,100437.21
2023-02-02T06:21:23.313Z,100436.09
2023-02-02T06:23:52.813Z,100435.50
2023-02-02T06:26:21.605Z,100435.53
2023-02-02T06:28:53.746Z,100442.36
2023-02-02T06:31:23.921Z,100443.14
2023-02-02T06:33:58.913Z,100443.98
2023-02-02T06:36:28.554Z,100441.00
2023-02-02T06:38:58.459Z,100437.66
2023-02-02T06:41:27.292Z,100441.02
2023-02-02T06:43:56.064Z,100439.63
2023-02-02T06:46:24.840Z,100444.42
2023-02-02T06:48:53.823Z,100441.94
2023-02-02T06:51:22.628Z,100436.04
2023-02-02T06:53:51.359Z,100432.89
2023-02-02T06:56:20.176Z,100428.43
2023-02-02T06:58:48.918Z,100430.35
2023-02-02T07:01:17.941Z,100429.31
2023-02-02T07:03:51.298Z,100430.48
2023-02-02T07:06:23.921Z,100431.91
2023-02-02T07:09:02.356Z,100435.22
2023-02-02T07:11:38.209Z,100437.34
2023-02-02T07:14:12.370Z,100435.55
2023-02-02T07:16:41.250Z,100436.08
2023-02-02T07:19:10.159Z,100435.08
2023-02-02T07:21:38.940Z,100432.75
2023-02-02T07:24:08.045Z,100429.98
2023-02-02T07:26:37.054Z,100429.48
2023-02-02T07:29:06.920Z,100423.98
2023-02-02T07:31:36.770Z,100423.64
2023-02-02T07:34:06.895Z,100427.53
2023-02-02T07:36:36.231Z,100429.84
2023-02-02T07:39:05.499Z,100430.69
2023-02-02T07:41:37.002Z,100426.82
2023-02-02T07:44:07.477Z,100420.73
2023-02-02T07:46:36.347Z,100421.90
2023-02-02T07:49:06.823Z,100428.53
2023-02-02T07:51:37.913Z,100425.93
2023-02-02T07:54:08.405Z,100419.88
2023-02-02T07:56:39.066Z,100421.50
2023-02-02T07:59:07.909Z,100418.79
2023-02-02T08:01:36.878Z,100416.29
2023-02-02T08:04:05.732Z,100420.17
2023-02-02T08:06:38.147Z,100420.61
2023-02-02T08:09:09.630Z,100415.70
2023-02-02T08:11:39.013Z,100413.50
2023-02-02T08:14:08.276Z,100412.89
2023-02-02T08:16:37.285Z,100408.70
2023-02-02T08:19:06.115Z,100412.45
2023-02-02T08:21:36.069Z,100411.77
2023-02-02T08:24:05.443Z,100415.34
2023-02-02T08:26:34.308Z,100416.36
2023-02-02T08:29:08.153Z,100414.58
2023-02-02T08:31:43.801Z,100412.51
2023-02-02T08:34:14.159Z,100413.84
2023-02-02T08:36:43.170Z,100408.80
2023-02-02T08:39:14.563Z,100403.09
2023-02-02T08:41:43.472Z,100405.83
2023-02-02T08:44:16.242Z,100404.98
2023-02-02T08:46:45.154Z,100411.36
2023-02-02T08:49:14.280Z,100411.38
2023-02-02T08:51:43.254Z,100407.31
2023-02-02T08:54:12.025Z,100409.67
2023-02-02T08:56:40.849Z,100411.66
2023-02-02T08:59:09.836Z,100411.78
2023-02-02T09:01:38.553Z,100414.32
2023-02-02T09:04:13.672Z,100415.65
2023-02-02T09:06:43.883Z,100404.67
2023-02-02T09:09:16.444Z,100410.66
2023-02-02T09:11:46.196Z,100404.70
2023-02-02T09:14:15.378Z,100401.73
2023-02-02T09:16:44.175Z,100402.27
2023-02-02T09:19:13.169Z,100406.98
2023-02-02T09:21:42.008Z,100404.21
2023-02-02T09:24:14.177Z,100401.02
2023-02-02T09:26:46.315Z,100397.60
2023-02-02T09:29:18.220Z,100391.80
2023-02-02T09:31:47.275Z,100391.61
2023-02-02T09:34:16.540Z,100389.95
2023-02-02T09:36:45.656Z,100385.05
2023-02-02T09:39:16.849Z,100379.01
2023-02-02T09:41:54.399Z,100374.47
2023-02-02T09:44:45.746Z,100373.64
2023-02-02T09:47:52.041Z,100373.40
2023-02-02T09:51:04.245Z,100372.02
2023-02-02T09:53:55.668Z,100371.94
2023-02-02T09:56:39.015Z,100370.42
2023-02-02T09:59:21.457Z,100367.19
2023-02-02T10:01:58.173Z,100367.03
2023-02-02T10:04:40.836Z,100364.27
2023-02-02T10:07:46.142Z,100364.21
2023-02-02T10:10:27.944Z,100366.46
2023-02-02T10:13:38.035Z,100367.13
2023-02-02T10:16:19.531Z,100367.55
2023-02-02T10:19:05.081Z,100369.75
2023-02-02T10:22:16.146Z,100366.81
2023-02-02T10:24:45.367Z,100363.61
2023-02-02T10:27:29.732Z,100362.29
2023-02-02T10:30:03.870Z,100359.94
2023-02-02T10:33:03.134Z,100361.02
2023-02-02T10:36:04.166Z,100356.46
2023-02-02T10:38:43.787Z,100353.46
2023-02-02T10:42:07.136Z,100349.73
2023-02-02T10:44:56.676Z,100346.50
2023-02-02T10:47:35.097Z,100344.04
2023-02-02T10:50:30.749Z,100344.48
2023-02-02T10:53:11.119Z,100336.42
2023-02-02T10:56:11.975Z,100335.10
2023-02-02T10:59:22.110Z,100336.23
2023-02-02T11:01:51.167Z,100341.50
2023-02-02T11:04:40.630Z,100337.06
2023-02-02T11:07:16.323Z,100340.95
2023-02-02T11:09:45.140Z,100343.91
2023-02-02T11:12:21.059Z,100341.77
2023-02-02T11:15:02.000Z,100343.34
2023-02-02T11:17:30.950Z,100341.81
2023-02-02T11:20:00.217Z,100342.31
2023-02-02T11:22:38.763Z,100342.19
2023-02-02T11:25:27.382Z,100345.05
2023-02-02T11:27:56.347Z,100343.95
2023-02-02T11:30:39.390Z,100342.63
2023-02-02T11:33:31.573Z,100343.71
2023-02-02T11:36:04.748Z,100345.70
2023-02-02T11:38:33.703Z,100342.66
2023-02-02T11:41:07.230Z,100342.10
2023-02-02T11:43:52.607Z,100344.33
2023-02-02T11:46:26.013Z,100346.04
2023-02-02T11:49:13.703Z,100343.48
2023-02-02T11:51:43.767Z,100344.03
2023-02-02T11:54:31.026Z,100342.23
2023-02-02T11:57:04.480Z,100342.50
2023-02-02T11:59:46.582Z,100346.08
2023-02-02T12:02:29.513Z,100345.67
2023-02-02T12:05:10.690Z,100353.77
2023-02-02T12:07:42.659Z,100350.56
2023-02-02T12:10:33.004Z,100356.94
2023-02-02T12:14:07.506Z,100359.45
2023-02-02T12:17:19.275Z,100364.27
2023-02-02T12:20:09.605Z,100364.90
2023-02-02T12:22:53.603Z,100363.83
2023-02-02T12:25:44.084Z,100366.44
2023-02-02T12:28:44.063Z,100360.61
2023-02-02T12:31:34.332Z,100372.92
2023-02-02T12:34:55.139Z,100367.80
2023-02-02T12:37:54.116Z,100376.52
2023-02-02T12:41:12.585Z,100374.95
2023-02-02T12:43:50.958Z,100376.94
2023-02-02T12:47:00.863Z,100380.17
2023-02-02T12:50:03.158Z,100381.34
2023-02-02T12:53:07.185Z,100384.05
2023-02-02T12:56:02.289Z,100384.93
2023-02-02T12:58:43.159Z,100386.26
2023-02-02T13:02:23.394Z,100386.93
2023-02-02T13:05:47.870Z,100388.71
2023-02-02T13:08:26.865Z,100387.05
2023-02-02T13:11:07.150Z,100389.37
2023-02-02T13:13:39.743Z,100388.30
2023-02-02T13:16:14.510Z,100387.54
2023-02-02T13:19:01.848Z,100391.69
2023-02-02T13:21:32.906Z,100394.38
2023-02-02T13:24:07.029Z,100395.91
2023-02-02T13:26:43.221Z,100394.79
2023-02-02T13:29:22.759Z,100390.55
2023-02-02T13:32:00.948Z,100394.46
2023-02-02T13:34:48.476Z,100394.94
2023-02-02T13:37:43.154Z,100399.52
2023-02-02T13:40:38.445Z,100397.30
2023-02-02T13:43:40.843Z,100396.87
2023-02-02T13:46:12.579Z,100398.15
2023-02-02T13:49:01.258Z,100405.34
2023-02-02T13:52:14.605Z,100403.61
2023-02-02T13:55:39.332Z,100406.82
2023-02-02T13:58:36.135Z,100404.86
2023-02-02T14:01:09.850Z,100406.85
2023-02-02T14:03:56.578Z,100408.34
2023-02-02T14:06:27.673Z,100409.96
2023-02-02T14:09:03.088Z,100414.48
2023-02-02T14:11:42.579Z,100419.57
2023-02-02T14:14:35.307Z,100424.08
2023-02-02T14:17:13.938Z,100424.23
2023-02-02T14:19:50.428Z,100422.80
2023-02-02T14:22:48.226Z,100423.59
2023-02-02T14:25:37.015Z,100424.16
2023-02-02T14:28:54.990Z,100424.09
2023-02-02T14:31:53.388Z,100428.84
2023-02-02T14:34:34.115Z,100436.04
2023-02-02T14:37:35.701Z,100438.42
2023-02-02T14:40:07.584Z,100444.11
2023-02-02T14:43:34.171Z,100443.19
2023-02-02T14:46:14.977Z,100444.18
2023-02-02T14:49:09.306Z,100446.74
2023-02-02T14:51:57.428Z,100447.77
2023-02-02T14:54:33.950Z,100451.80
2023-02-02T14:57:25.845Z,100458.57
2023-02-02T14:59:59.326Z,100458.38
2023-02-02T15:02:29.675Z,100464.10
2023-02-02T15:05:29.271Z,100466.23
2023-02-02T15:08:24.771Z,100464.75
2023-02-02T15:11:23.466Z,100468.44
2023-02-02T15:14:02.093Z,100468.30
2023-02-02T15:16:33.964Z,100462.61
2023-02-02T15:19:14.397Z,100469.05
2023-02-02T15:21:47.888Z,100473.85
2023-02-02T15:24:25.438Z,100476.84
2023-02-02T15:26:55.941Z,100475.52
2023-02-02T15:29:42.837Z,100477.40
2023-02-02T15:32:20.576Z,100479.01
2023-02-02T15:34:54.928Z,100483.20
2023-02-02T15:37:34.538Z,100484.23
2023-02-02T15:40:17.590Z,100488.54
2023-02-02T15:42:59.166Z,100495.36
2023-02-02T15:45:50.332Z,100500.10
2023-02-02T15:48:20.966Z,100500.67
2023-02-02T15:50:55.790Z,100503.34
2023-02-02T15:53:34.333Z,100503.63
2023-02-02T15:56:24.403Z,100508.61
2023-02-02T15:58:57.624Z,100510.08
2023-02-02T16:01:33.518Z,100509.77
2023-02-02T16:04:32.196Z,100510.42
2023-02-02T16:07:07.738Z,100510.59
2023-02-02T16:09:41.943Z,100517.88
2023-02-02T16:12:23.455Z,100519.69
2023-02-02T16:14:55.584Z,100519.92
2023-02-02T16:17:35.758Z,100531.38
2023-02-02T16:20:17.880Z,100537.23
2023-02-02T16:22:47.186Z,100538.40
2023-02-02T16:25:23.173Z,100539.00
2023-02-02T16:27:53.173Z,100541.61
2023-02-02T16:30:32.961Z,100545.64
2023-02-02T16:33:44.367Z,100547.60
2023-02-02T16:36:29.876Z,100545.80
2023-02-02T16:39:01.197Z,100562.73
2023-02-02T16:41:35.532Z,100563.54
2023-02-02T16:44:31.138Z,100570.05
2023-02-02T16:47:00.502Z,100574.05
2023-02-02T16:49:30.940Z,100578.09
2023-02-02T16:52:16.356Z,100581.06
2023-02-02T16:54:57.243Z,100583.61
2023-02-02T16:57:34.558Z,100586.36
2023-02-02T17:00:08.042Z,100589.85
2023-02-02T17:02:41.270Z,100594.75
2023-02-02T17:05:27.929Z,100596.13
2023-02-02T17:08:05.743Z,100597.74
2023-02-02T17:10:44.073Z,100601.72
2023-02-02T17:13:31.061Z,100603.17
2023-02-02T17:16:00.680Z,100604.77
2023-02-02T17:18:29.488Z,100607.28
2023-02-02T17:21:03.844Z,100607.38
2023-02-02T17:23:32.993Z,100615.41
2023-02-02T17:26:02.119Z,100618.33
2023-02-02T17:28:31.570Z,100618.20
2023-02-02T17:31:15.028Z,100621.83
2023-02-02T17:33:44.064Z,100621.21
2023-02-02T17:36:13.821Z,100623.95
2023-02-02T17:38:43.040Z,100628.80
2023-02-02T17:41:14.423Z,100631.02
2023-02-02T17:43:43.193Z,100631.12
2023-02-02T17:46:13.538Z,100629.82
2023-02-02T17:48:42.844Z,100634.13
2023-02-02T17:51:18.010Z,100642.33
2023-02-02T17:53:47.377Z,100637.84
2023-02-02T17:56:18.822Z,100642.29
2023-02-02T17:58:48.659Z,100645.96
2023-02-02T18:01:19.476Z,100642.89
2023-02-02T18:03:49.270Z,100638.38
2023-02-02T18:06:18.302Z,100639.84
2023-02-02T18:08:47.521Z,100643.79
2023-02-02T18:11:18.874Z,100641.41
2023-02-02T18:13:48.043Z,100641.80
2023-02-02T18:16:17.204Z,100645.04
2023-02-02T18:18:46.521Z,100646.40
2023-02-02T18:21:15.288Z,100652.05
2023-02-02T18:23:47.837Z,100659.88
2023-02-02T18:26:20.398Z,100663.67
2023-02-02T18:28:51.616Z,100664.56
2023-02-02T18:31:24.032Z,100663.38
2023-02-02T18:33:54.007Z,100667.38
2023-02-02T18:36:23.948Z,100671.27
2023-02-02T18:38:54.117Z,100668.35
2023-02-02T18:41:23.629Z,100668.50
2023-02-02T18:43:55.372Z,100669.15
2023-02-02T18:46:24.587Z,100668.11
2023-02-02T18:48:53.498Z,100669.17
2023-02-02T18:51:22.199Z,100665.27
2023-02-02T18:53:50.981Z,100665.88
2023-02-02T18:56:19.920Z,100663.90
2023-02-02T18:58:48.753Z,100663.30
2023-02-02T19:01:19.632Z,100661.66
2023-02-02T19:03:51.501Z,100665.67
2023-02-02T19:06:40.064Z,100662.71
2023-02-02T19:09:09.799Z,100667.48
2023-02-02T19:11:45.235Z,100667.28
2023-02-02T19:14:26.896Z,100666.61
2023-02-02T19:17:05.171Z,100666.21
2023-02-02T19:19:34.809Z,100658.03
2023-02-02T19:22:33.978Z,100658.13
2023-02-02T19:25:13.899Z,100659.66
2023-02-02T19:27:43.627Z,100664.33
2023-02-02T19:30:23.987Z,100662.64
2023-02-02T19:32:53.044Z,100661.96
2023-02-02T19:35:25.797Z,100658.20
2023-02-02T19:38:01.976Z,100659.58
2023-02-02T19:40:30.850Z,100658.95
2023-02-02T19:43:28.856Z,100657.40
2023-02-02T19:46:00.359Z,100661.58
2023-02-02T19:48:35.845Z,100661.20
2023-02-02T19:51:56.940Z,100669.33
2023-02-02T19:54:45.381Z,100672.18
2023-02-02T19:57:21.010Z,100674.91
2023-02-02T19:59:52.727Z,100686.75
2023-02-02T20:02:54.647Z,100688.55
2023-02-02T20:05:27.754Z,100685.02
2023-02-02T20:08:24.282Z,100681.23
2023-02-02T20:10:55.917Z,100681.63
2023-02-02T20:13:33.393Z,100685.17
2023-02-02T20:16:04.532Z,100688.89
2023-02-02T20:18:48.700Z,100688.08
2023-02-02T20:21:46.435Z,100692.95
2023-02-02T20:24:28.515Z,100701.77
2023-02-02T20:27:08.589Z,100700.50
2023-02-02T20:29:41.735Z,100701.81
2023-02-02T20:32:21.913Z,100702.33
2023-02-02T20:34:51.476Z,100706.61
2023-02-02T20:37:29.298Z,100706.96
2023-02-02T20:40:21.532Z,100708.74
2023-02-02T20:42:51.033Z,100708.55
2023-02-02T20:45:21.799Z,100709.89
2023-02-02T20:47:50.778Z,100706.45
2023-02-02T20:50:22.584Z,100702.46
2023-02-02T20:52:52.078Z,100701.30
2023-02-02T20:55:20.868Z,100706.38
2023-02-02T20:57:49.584Z,100699.05
2023-02-02T21:00:21.465Z,100700.09
2023-02-02T21:02:52.203Z,100694.30
2023-02-02T21:05:21.451Z,100698.67
2023-02-02T21:07:54.719Z,100696.14
2023-02-02T21:10:25.494Z,100699.59
2023-02-02T21:12:54.497Z,100701.89
2023-02-02T21:15:23.746Z,100699.41
2023-02-02T21:17:53.166Z,100703.41
2023-02-02T21:20:21.994Z,100702.16
2023-02-02T21:22:50.771Z,100699.16
2023-02-02T21:25:19.558Z,100698.05
2023-02-02T21:27:58.227Z,100699.82
2023-02-02T21:30:27.539Z,100696.70
2023-02-02T21:32:59.100Z,100701.21
2023-02-02T21:35:28.799Z,100700.87
2023-02-02T21:38:06.095Z,100709.16
2023-02-02T21:40:36.894Z,100710.81
2023-02-02T21:43:17.694Z,100716.73
2023-02-02T21:45:51.693Z,100714.44
2023-02-02T21:48:29.265Z,100714.77
2023-02-02T21:50:57.987Z,100714.92
2023-02-02T21:53:27.971Z,100714.58
2023-02-02T21:56:00.013Z,100722.14
2023-02-02T21:58:38.705Z,100723.55
2023-02-02T22:01:32.085Z,100718.00
2023-02-02T22:04:01.079Z,100713.45
2023-02-02T22:06:35.154Z,100717.80
2023-02-02T22:09:12.894Z,100713.59
2023-02-02T22:12:02.533Z,100720.86
2023-02-02T22:14:45.887Z,100719.64
2023-02-02T22:17:28.085Z,100714.91
2023-02-02T22:20:15.320Z,100714.05
2023-02-02T22:22:50.515Z,100719.59
2023-02-02T22:25:26.905Z,100719.48
2023-02-02T22:27:58.930Z,100724.84
2023-02-02T22:30:40.460Z,100724.39
2023-02-02T22:33:12.537Z,100728.08
2023-02-02T22:35:42.523Z,100727.55
2023-02-02T22:38:18.967Z,100729.58
2023-02-02T22:40:49.049Z,100734.05
2023-02-02T22:43:19.491Z,100728.08
2023-02-02T22:45:49.269Z,100721.30
2023-02-02T22:48:18.187Z,100743.91
2023-02-02T22:50:47.323Z,100742.19
2023-02-02T22:53:16.097Z,100748.86
2023-02-02T22:55:44.979Z,100743.94
2023-02-02T22:58:13.759Z,100740.33
2023-02-02T23:00:42.500Z,100735.52
2023-02-02T23:03:11.437Z,100741.97
2023-02-02T23:05:40.185Z,100746.22
2023-02-02T23:08:08.958Z,100747.88
2023-02-02T23:10:37.744Z,100752.23
2023-02-02T23:13:07.158Z,100754.27
2023-02-02T23:15:35.947Z,100749.04
2023-02-02T23:18:05.183Z,100758.15
2023-02-02T23:20:33.933Z,100762.67
2023-02-02T23:23:02.751Z,100767.04
2023-02-02T23:25:31.466Z,100771.76
2023-02-02T23:28:00.186Z,100766.27
2023-02-02T23:30:29.173Z,100763.88
2023-02-02T23:32:58.019Z,100768.05
2023-02-02T23:35:26.836Z,100772.05
2023-02-02T23:37:55.570Z,100785.30
2023-02-02T23:40:24.753Z,100781.29
2023-02-02T23:42:53.701Z,100789.43
2023-02-02T23:45:22.434Z,100794.58
2023-02-02T23:47:51.154Z,100805.76
2023-02-02T23:50:20.159Z,100804.34
2023-02-02T23:52:49.015Z,100789.88
2023-02-02T23:55:17.922Z,100794.41
2023-02-02T23:57:46.739Z,100798.95
